createdAt,value
2018-11-27T00:00:19.144Z,19.06
2018-11-27T00:01:19.150Z,19.13
2018-11-27T00:02:19.049Z,19.13
2018-11-27T00:03:19.000Z,19.07
2018-11-27T00:04:18.952Z,19.13
2018-11-27T00:05:18.904Z,19.06
2018-11-27T00:06:18.859Z,19.06
2018-11-27T00:07:18.810Z,19.11
2018-11-27T00:08:18.762Z,19.04
2018-11-27T00:09:18.715Z,19.07
2018-11-27T00:10:18.668Z,19.11
2018-11-27T00:11:18.618Z,19.11
2018-11-27T00:12:18.571Z,19.08
2018-11-27T00:13:18.524Z,19.11
2018-11-27T00:14:18.476Z,19.04
2018-11-27T00:15:18.428Z,19.07
2018-11-27T00:16:18.381Z,19.10
2018-11-27T00:17:18.333Z,19.06
2018-11-27T00:18:18.288Z,19.10
2018-11-27T00:19:18.238Z,19.07
2018-11-27T00:20:18.189Z,19.10
2018-11-27T00:21:18.143Z,19.19
2018-11-27T00:22:18.095Z,19.19
2018-11-27T00:23:18.046Z,19.11
2018-11-27T00:24:18.000Z,19.06
2018-11-27T00:25:17.952Z,19.07
2018-11-27T00:26:17.903Z,19.07
2018-11-27T00:27:17.855Z,19.10
2018-11-27T00:28:17.808Z,19.11
2018-11-27T00:29:17.760Z,19.10
2018-11-27T00:30:17.713Z,19.13
2018-11-27T00:31:17.665Z,19.18
2018-11-27T00:32:17.623Z,19.19
2018-11-27T00:33:17.569Z,19.10
2018-11-27T00:34:17.528Z,19.14
2018-11-27T00:35:17.474Z,19.18
2018-11-27T00:36:17.426Z,19.18
2018-11-27T00:37:17.378Z,19.22
2018-11-27T00:38:17.331Z,19.19
2018-11-27T00:39:17.283Z,19.19
2018-11-27T00:40:17.552Z,19.13
2018-11-27T00:41:17.188Z,19.21
2018-11-27T00:42:17.140Z,19.23
2018-11-27T00:43:17.091Z,19.21
2018-11-27T00:44:17.045Z,19.22
2018-11-27T00:45:17.006Z,19.14
2018-11-27T00:46:16.948Z,19.16
2018-11-27T00:47:16.901Z,19.19
2018-11-27T00:48:16.855Z,19.21
2018-11-27T00:49:16.808Z,19.23
2018-11-27T00:50:16.758Z,19.26
2018-11-27T00:51:16.710Z,19.28
2018-11-27T00:52:16.663Z,19.14
2018-11-27T00:53:16.621Z,19.23
2018-11-27T00:54:16.568Z,19.16
2018-11-27T00:55:16.520Z,19.21
2018-11-27T00:56:16.471Z,19.14
2018-11-27T00:57:16.424Z,19.18
2018-11-27T00:58:16.377Z,19.28
2018-11-27T00:59:16.329Z,19.14
2018-11-27T01:00:16.281Z,19.18
2018-11-27T01:01:16.234Z,19.16
2018-11-27T01:02:16.186Z,19.14
2018-11-27T01:03:16.138Z,19.25
2018-11-27T01:04:16.091Z,19.22
2018-11-27T01:05:16.042Z,19.14
2018-11-27T01:06:15.996Z,19.22
2018-11-27T01:07:15.950Z,19.26
2018-11-27T01:08:15.905Z,19.16
2018-11-27T01:09:15.854Z,19.19
2018-11-27T01:10:15.805Z,19.14
2018-11-27T01:11:15.758Z,19.19
2018-11-27T01:12:15.710Z,19.19
2018-11-27T01:13:15.661Z,19.21
2018-11-27T01:14:15.614Z,19.26
2018-11-27T01:15:15.566Z,19.21
2018-11-27T01:16:15.519Z,19.22
2018-11-27T01:17:15.520Z,19.21
2018-11-27T01:18:15.423Z,19.14
2018-11-27T01:19:15.375Z,19.26
2018-11-27T01:20:15.328Z,19.21
2018-11-27T01:21:15.280Z,19.21
2018-11-27T01:22:15.233Z,19.16
2018-11-27T01:23:15.185Z,19.18
2018-11-27T01:24:15.137Z,19.29
2018-11-27T01:25:15.090Z,19.14
2018-11-27T01:26:15.042Z,19.18
2018-11-27T01:27:14.993Z,19.23
2018-11-27T01:28:14.946Z,19.31
2018-11-27T01:29:14.899Z,19.23
2018-11-27T01:30:14.855Z,19.29
2018-11-27T01:31:14.803Z,19.28
2018-11-27T01:32:14.756Z,19.31
2018-11-27T01:33:14.708Z,19.31
2018-11-27T01:34:14.661Z,19.29
2018-11-27T01:35:14.614Z,19.25
2018-11-27T01:36:14.564Z,19.32
2018-11-27T01:37:14.518Z,19.32
2018-11-27T01:38:14.470Z,19.32
2018-11-27T01:39:14.423Z,19.25
2018-11-27T01:40:14.377Z,19.31
2018-11-27T01:41:14.327Z,19.21
2018-11-27T01:42:14.278Z,19.25
2018-11-27T01:43:14.231Z,19.36
2018-11-27T01:44:14.183Z,19.28
2018-11-27T01:45:14.139Z,19.23
2018-11-27T01:46:14.089Z,19.28
2018-11-27T01:47:14.041Z,19.37
2018-11-27T01:48:13.992Z,19.39
2018-11-27T01:49:13.961Z,19.37
2018-11-27T01:50:13.948Z,19.28
2018-11-27T01:51:13.851Z,19.26
2018-11-27T01:52:13.803Z,19.25
2018-11-27T01:53:13.756Z,19.39
2018-11-27T01:54:13.713Z,19.25
2018-11-27T01:55:13.666Z,19.23
2018-11-27T01:56:13.613Z,19.26
2018-11-27T01:57:13.565Z,19.37
2018-11-27T01:58:13.517Z,19.31
2018-11-27T01:59:13.469Z,19.23
2018-11-27T02:00:13.422Z,19.29
2018-11-27T02:01:13.375Z,19.29
2018-11-27T02:02:13.327Z,19.26
2018-11-27T02:03:13.278Z,19.28
2018-11-27T02:04:13.274Z,19.31
2018-11-27T02:05:13.501Z,19.28
2018-11-27T02:06:13.139Z,19.29
2018-11-27T02:07:13.090Z,19.28
2018-11-27T02:08:13.041Z,19.23
2018-11-27T02:09:12.992Z,19.25
2018-11-27T02:10:12.945Z,19.26
2018-11-27T02:11:12.898Z,19.36
2018-11-27T02:12:12.850Z,19.29
2018-11-27T02:13:12.803Z,19.39
2018-11-27T02:14:12.754Z,19.36
2018-11-27T02:15:12.708Z,19.41
2018-11-27T02:16:12.659Z,19.33
2018-11-27T02:17:12.612Z,19.37
2018-11-27T02:18:12.566Z,19.31
2018-11-27T02:19:12.519Z,19.43
2018-11-27T02:20:12.470Z,19.40
2018-11-27T02:21:12.423Z,19.40
2018-11-27T02:22:12.376Z,19.46
2018-11-27T02:23:12.327Z,19.44
2018-11-27T02:24:12.281Z,19.47
2018-11-27T02:25:12.232Z,19.43
2018-11-27T02:26:12.191Z,19.47
2018-11-27T02:27:12.136Z,19.44
2018-11-27T02:28:12.088Z,19.46
2018-11-27T02:29:12.041Z,19.47
2018-11-27T02:30:11.994Z,19.50
2018-11-27T02:31:11.952Z,19.44
2018-11-27T02:32:11.899Z,19.43
2018-11-27T02:33:11.854Z,19.44
2018-11-27T02:34:11.805Z,19.48
2018-11-27T02:35:11.756Z,19.50
2018-11-27T02:36:11.711Z,19.47
2018-11-27T02:37:11.664Z,19.39
2018-11-27T02:38:11.614Z,19.46
2018-11-27T02:39:11.577Z,19.40
2018-11-27T02:40:11.516Z,19.40
2018-11-27T02:41:11.471Z,19.33
2018-11-27T02:42:11.424Z,19.36
2018-11-27T02:43:11.375Z,19.44
2018-11-27T02:44:11.327Z,19.29
2018-11-27T02:45:11.289Z,19.32
2018-11-27T02:46:11.333Z,19.37
2018-11-27T02:47:11.185Z,19.31
2018-11-27T02:48:11.138Z,19.33
2018-11-27T02:49:11.089Z,19.33
2018-11-27T02:50:11.050Z,19.33
2018-11-27T02:51:10.993Z,19.31
2018-11-27T02:52:10.948Z,19.26
2018-11-27T02:53:10.899Z,19.33
2018-11-27T02:54:10.852Z,19.31
2018-11-27T02:55:10.810Z,19.40
2018-11-27T02:56:10.757Z,19.43
2018-11-27T02:57:10.709Z,19.39
2018-11-27T02:58:10.662Z,19.37
2018-11-27T02:59:10.614Z,19.36
2018-11-27T03:00:10.566Z,19.37
2018-11-27T03:01:10.532Z,19.39
2018-11-27T03:02:10.478Z,19.36
2018-11-27T03:03:10.424Z,19.31
2018-11-27T03:04:10.376Z,19.25
2018-11-27T03:05:10.331Z,19.37
2018-11-27T03:06:10.280Z,19.39
2018-11-27T03:07:10.232Z,19.41
2018-11-27T03:08:10.185Z,19.33
2018-11-27T03:09:10.138Z,19.37
2018-11-27T03:10:10.090Z,19.23
2018-11-27T03:11:10.048Z,19.36
2018-11-27T03:12:09.995Z,19.31
2018-11-27T03:13:09.953Z,19.28
2018-11-27T03:14:09.904Z,19.25
2018-11-27T03:15:09.852Z,19.26
2018-11-27T03:16:09.803Z,19.31
2018-11-27T03:17:09.761Z,19.29
2018-11-27T03:18:09.713Z,19.28
2018-11-27T03:19:09.660Z,19.26
2018-11-27T03:20:09.614Z,19.22
2018-11-27T03:21:09.567Z,19.28
2018-11-27T03:22:09.519Z,19.31
2018-11-27T03:23:09.469Z,19.29
2018-11-27T03:24:09.423Z,19.23
2018-11-27T03:25:09.375Z,19.31
2018-11-27T03:26:09.332Z,19.31
2018-11-27T03:27:09.279Z,19.22
2018-11-27T03:28:09.233Z,19.16
2018-11-27T03:29:09.185Z,19.31
2018-11-27T03:30:09.139Z,19.23
2018-11-27T03:31:09.093Z,19.28
2018-11-27T03:32:09.045Z,19.31
2018-11-27T03:33:09.314Z,19.31
2018-11-27T03:34:09.264Z,19.16
2018-11-27T03:35:08.898Z,19.18
2018-11-27T03:36:08.853Z,19.22
2018-11-27T03:37:08.805Z,19.22
2018-11-27T03:38:08.756Z,19.28
2018-11-27T03:39:08.708Z,19.26
2018-11-27T03:40:08.661Z,19.28
2018-11-27T03:41:08.615Z,19.26
2018-11-27T03:42:08.566Z,19.19
2018-11-27T03:43:08.516Z,19.28
2018-11-27T03:44:08.471Z,19.29
2018-11-27T03:45:08.426Z,19.32
2018-11-27T03:46:08.377Z,19.26
2018-11-27T03:47:08.328Z,19.28
2018-11-27T03:48:08.280Z,19.31
2018-11-27T03:49:08.231Z,19.26
2018-11-27T03:50:08.185Z,19.29
2018-11-27T03:51:08.143Z,19.28
2018-11-27T03:52:08.089Z,19.23
2018-11-27T03:53:08.042Z,19.36
2018-11-27T03:54:07.994Z,19.26
2018-11-27T03:55:07.945Z,19.28
2018-11-27T03:56:07.899Z,19.29
2018-11-27T03:57:07.852Z,19.29
2018-11-27T03:58:07.804Z,19.28
2018-11-27T03:59:07.755Z,19.26
2018-11-27T04:00:07.708Z,19.25
2018-11-27T04:01:07.662Z,19.23
2018-11-27T04:02:07.613Z,19.21
2018-11-27T04:03:07.565Z,19.28
2018-11-27T04:04:10.011Z,19.31
2018-11-27T04:05:07.469Z,19.28
2018-11-27T04:06:07.423Z,19.28
2018-11-27T04:07:07.376Z,19.29
2018-11-27T04:08:07.333Z,19.31
2018-11-27T04:09:07.282Z,19.32
2018-11-27T04:10:07.233Z,19.25
2018-11-27T04:11:07.183Z,19.32
2018-11-27T04:12:07.137Z,19.25
2018-11-27T04:13:07.091Z,19.32
2018-11-27T04:14:07.045Z,19.31
2018-11-27T04:15:07.044Z,19.26
2018-11-27T04:16:06.947Z,19.29
2018-11-27T04:17:06.898Z,19.23
2018-11-27T04:18:06.851Z,19.26
2018-11-27T04:19:06.821Z,19.31
2018-11-27T04:20:06.755Z,19.25
2018-11-27T04:21:06.708Z,19.26
2018-11-27T04:22:06.662Z,19.29
2018-11-27T04:23:06.613Z,19.31
2018-11-27T04:24:06.566Z,19.28
2018-11-27T04:25:06.519Z,19.33
2018-11-27T04:26:06.471Z,19.28
2018-11-27T04:27:06.421Z,19.25
2018-11-27T04:28:06.374Z,19.23
2018-11-27T04:29:06.328Z,19.33
2018-11-27T04:30:06.280Z,19.31
2018-11-27T04:31:06.232Z,19.31
2018-11-27T04:32:06.185Z,19.29
2018-11-27T04:33:06.137Z,19.28
2018-11-27T04:34:06.089Z,19.29
2018-11-27T04:35:06.042Z,19.26
2018-11-27T04:36:05.997Z,19.28
2018-11-27T04:37:05.947Z,19.26
2018-11-27T04:38:05.900Z,19.26
2018-11-27T04:39:05.852Z,19.33
2018-11-27T04:40:05.803Z,19.25
2018-11-27T04:41:05.756Z,19.31
2018-11-27T04:42:05.711Z,19.31
2018-11-27T04:43:05.659Z,19.28
2018-11-27T04:44:05.612Z,19.26
2018-11-27T04:45:05.615Z,19.29
2018-11-27T04:46:05.520Z,19.29
2018-11-27T04:47:05.469Z,19.28
2018-11-27T04:48:05.421Z,19.29
2018-11-27T04:49:05.376Z,19.23
2018-11-27T04:50:05.326Z,19.23
2018-11-27T04:51:05.281Z,19.22
2018-11-27T04:52:05.240Z,19.23
2018-11-27T04:53:05.183Z,19.21
2018-11-27T04:54:05.138Z,19.29
2018-11-27T04:55:05.087Z,19.21
2018-11-27T04:56:05.042Z,19.26
2018-11-27T04:57:04.992Z,19.26
2018-11-27T04:58:04.946Z,19.23
2018-11-27T04:59:04.898Z,19.21
2018-11-27T05:00:04.850Z,19.32
2018-11-27T05:01:04.803Z,19.31
2018-11-27T05:02:04.757Z,19.29
2018-11-27T05:03:04.707Z,19.22
2018-11-27T05:04:04.664Z,19.28
2018-11-27T05:05:04.612Z,19.28
2018-11-27T05:06:04.572Z,19.28
2018-11-27T05:07:04.549Z,19.31
2018-11-27T05:08:04.519Z,19.26
2018-11-27T05:09:04.425Z,19.26
2018-11-27T05:10:04.374Z,19.23
2018-11-27T05:11:04.325Z,19.23
2018-11-27T05:12:04.278Z,19.26
2018-11-27T05:13:04.230Z,19.36
2018-11-27T05:14:04.183Z,19.32
2018-11-27T05:15:04.135Z,19.32
2018-11-27T05:16:04.088Z,19.23
2018-11-27T05:17:04.040Z,19.31
2018-11-27T05:18:03.994Z,19.33
2018-11-27T05:19:03.944Z,19.33
2018-11-27T05:20:03.897Z,19.28
2018-11-27T05:21:03.848Z,19.36
2018-11-27T05:22:03.802Z,19.28
2018-11-27T05:23:03.755Z,19.39
2018-11-27T05:24:03.706Z,19.36
2018-11-27T05:25:03.658Z,19.33
2018-11-27T05:26:03.611Z,19.36
2018-11-27T05:27:03.562Z,19.43
2018-11-27T05:28:03.515Z,19.28
2018-11-27T05:29:03.468Z,19.41
2018-11-27T05:30:03.421Z,19.31
2018-11-27T05:31:03.374Z,19.36
2018-11-27T05:32:03.325Z,19.23
2018-11-27T05:33:03.276Z,19.29
2018-11-27T05:34:03.228Z,19.39
2018-11-27T05:35:03.185Z,19.37
2018-11-27T05:36:03.200Z,19.23
2018-11-27T05:37:03.086Z,19.31
2018-11-27T05:38:03.040Z,19.33
2018-11-27T05:39:02.990Z,19.31
2018-11-27T05:40:02.948Z,19.29
2018-11-27T05:41:02.896Z,19.26
2018-11-27T05:42:02.849Z,19.25
2018-11-27T05:43:02.800Z,19.22
2018-11-27T05:44:02.753Z,19.29
2018-11-27T05:45:02.705Z,19.29
2018-11-27T05:46:02.658Z,19.22
2018-11-27T05:47:02.610Z,19.25
2018-11-27T05:48:02.561Z,19.31
2018-11-27T05:49:02.514Z,19.29
2018-11-27T05:50:02.466Z,19.28
2018-11-27T05:51:02.417Z,19.28
2018-11-27T05:52:02.372Z,19.23
2018-11-27T05:53:02.326Z,19.37
2018-11-27T05:54:02.276Z,19.25
2018-11-27T05:55:02.227Z,19.36
2018-11-27T05:56:02.180Z,19.23
2018-11-27T05:57:02.132Z,19.23
2018-11-27T05:58:02.086Z,19.28
2018-11-27T05:59:02.037Z,19.29
2018-11-27T06:00:01.989Z,19.26
2018-11-27T06:01:01.943Z,19.26
2018-11-27T06:02:01.895Z,19.31
2018-11-27T06:03:01.846Z,19.25
2018-11-27T06:04:01.806Z,19.31
2018-11-27T06:05:01.760Z,19.29
2018-11-27T06:06:01.705Z,19.28
2018-11-27T06:07:01.656Z,19.25
2018-11-27T06:08:01.608Z,19.31
2018-11-27T06:09:01.561Z,19.28
2018-11-27T06:10:01.514Z,19.23
2018-11-27T06:11:01.466Z,19.33
2018-11-27T06:12:01.416Z,19.32
2018-11-27T06:13:01.376Z,19.32
2018-11-27T06:14:01.324Z,19.31
2018-11-27T06:15:01.287Z,19.29
2018-11-27T06:16:01.227Z,19.33
2018-11-27T06:17:01.179Z,19.25
2018-11-27T06:18:01.136Z,19.33
2018-11-27T06:19:01.089Z,19.23
2018-11-27T06:20:01.035Z,19.28
2018-11-27T06:21:00.989Z,19.26
2018-11-27T06:22:00.941Z,19.31
2018-11-27T06:23:00.891Z,19.26
2018-11-27T06:24:00.845Z,19.36
2018-11-27T06:25:00.798Z,19.26
2018-11-27T06:26:00.750Z,19.40
2018-11-27T06:27:00.701Z,19.43
2018-11-27T06:28:00.654Z,19.36
2018-11-27T06:29:00.606Z,19.36
2018-11-27T06:30:00.560Z,19.36
2018-11-27T06:31:00.512Z,19.32
2018-11-27T06:32:00.464Z,19.31
2018-11-27T06:33:00.417Z,19.41
2018-11-27T06:34:00.369Z,19.39
2018-11-27T06:35:00.321Z,19.40
2018-11-27T06:36:00.274Z,19.31
2018-11-27T06:37:00.226Z,19.41
2018-11-27T06:38:00.179Z,19.37
2018-11-27T06:39:00.130Z,19.41
2018-11-27T06:40:00.528Z,19.37
2018-11-27T06:41:00.035Z,19.26
2018-11-27T06:41:59.988Z,19.36
2018-11-27T06:42:59.939Z,19.28
2018-11-27T06:43:59.892Z,19.29
2018-11-27T06:44:59.845Z,19.28
2018-11-27T06:45:59.797Z,19.28
2018-11-27T06:46:59.749Z,19.29
2018-11-27T06:47:59.702Z,19.25
2018-11-27T06:48:59.654Z,19.25
2018-11-27T06:49:59.606Z,19.26
2018-11-27T06:50:59.558Z,19.26
2018-11-27T06:51:59.511Z,19.23
2018-11-27T06:52:59.462Z,19.28
2018-11-27T06:53:59.416Z,19.21
2018-11-27T06:54:59.367Z,19.25
2018-11-27T06:55:59.322Z,19.16
2018-11-27T06:56:59.272Z,19.21
2018-11-27T06:57:59.228Z,19.16
2018-11-27T06:58:59.176Z,19.18
2018-11-27T06:59:59.128Z,19.18
2018-11-27T07:00:59.081Z,19.23
2018-11-27T07:01:59.355Z,19.22
2018-11-27T07:02:58.986Z,19.18
2018-11-27T07:03:58.938Z,19.16
2018-11-27T07:04:58.891Z,19.18
2018-11-27T07:05:58.842Z,19.25
2018-11-27T07:06:58.795Z,19.22
2018-11-27T07:07:58.747Z,19.21
2018-11-27T07:08:58.700Z,19.19
2018-11-27T07:09:58.653Z,19.13
2018-11-27T07:10:58.604Z,19.10
2018-11-27T07:11:58.557Z,19.07
2018-11-27T07:12:58.509Z,19.19
2018-11-27T07:13:58.462Z,19.10
2018-11-27T07:14:58.413Z,19.10
2018-11-27T07:15:58.379Z,19.06
2018-11-27T07:16:58.319Z,19.11
2018-11-27T07:17:58.271Z,19.07
2018-11-27T07:18:58.222Z,19.08
2018-11-27T07:19:58.175Z,19.14
2018-11-27T07:20:58.127Z,19.11
2018-11-27T07:21:58.079Z,19.14
2018-11-27T07:22:58.034Z,19.07
2018-11-27T07:23:57.984Z,19.04
2018-11-27T07:24:57.938Z,19.11
2018-11-27T07:25:57.891Z,19.07
2018-11-27T07:26:57.848Z,19.04
2018-11-27T07:27:57.793Z,18.99
2018-11-27T07:28:57.751Z,18.94
2018-11-27T07:29:57.698Z,18.98
2018-11-27T07:30:57.650Z,18.95
2018-11-27T07:31:57.602Z,18.98
2018-11-27T07:32:57.555Z,19.02
2018-11-27T07:33:57.508Z,18.94
2018-11-27T07:34:57.459Z,18.98
2018-11-27T07:35:57.411Z,18.98
2018-11-27T07:36:57.364Z,18.95
2018-11-27T07:37:57.315Z,18.99
2018-11-27T07:38:57.267Z,19.02
2018-11-27T07:39:57.219Z,18.95
2018-11-27T07:40:57.172Z,18.99
2018-11-27T07:41:57.125Z,19.00
2018-11-27T07:42:57.076Z,19.04
2018-11-27T07:43:57.029Z,19.00
2018-11-27T07:44:56.981Z,18.95
2018-11-27T07:45:56.934Z,18.98
2018-11-27T07:46:56.884Z,19.02
2018-11-27T07:47:56.836Z,19.06
2018-11-27T07:48:56.793Z,19.04
2018-11-27T07:49:56.743Z,19.02
2018-11-27T07:50:56.698Z,19.16
2018-11-27T07:51:56.646Z,19.00
2018-11-27T07:52:56.599Z,19.06
2018-11-27T07:53:56.552Z,19.13
2018-11-27T07:54:56.504Z,19.13
2018-11-27T07:55:56.455Z,19.10
2018-11-27T07:56:56.410Z,19.16
2018-11-27T07:57:56.411Z,19.11
2018-11-27T07:58:56.312Z,19.08
2018-11-27T07:59:56.264Z,19.10
2018-11-27T08:00:56.217Z,19.11
2018-11-27T08:01:56.170Z,19.00
2018-11-27T08:02:56.172Z,19.10
2018-11-27T08:03:56.073Z,19.10
2018-11-27T08:04:56.026Z,19.08
2018-11-27T08:05:55.982Z,19.04
2018-11-27T08:06:55.931Z,19.11
2018-11-27T08:07:55.882Z,19.06
2018-11-27T08:08:55.836Z,19.16
2018-11-27T08:09:55.788Z,19.08
2018-11-27T08:10:55.740Z,19.11
2018-11-27T08:11:55.692Z,19.06
2018-11-27T08:12:55.644Z,19.11
2018-11-27T08:13:55.598Z,19.08
2018-11-27T08:14:55.548Z,19.06
2018-11-27T08:15:55.505Z,19.07
2018-11-27T08:16:55.453Z,19.06
2018-11-27T08:17:55.406Z,19.16
2018-11-27T08:18:55.360Z,19.07
2018-11-27T08:19:55.311Z,19.04
2018-11-27T08:20:55.263Z,19.11
2018-11-27T08:21:55.216Z,19.08
2018-11-27T08:22:55.318Z,19.16
2018-11-27T08:23:55.120Z,19.08
2018-11-27T08:24:55.075Z,19.11
2018-11-27T08:25:55.025Z,19.04
2018-11-27T08:26:54.977Z,19.02
2018-11-27T08:27:54.933Z,19.08
2018-11-27T08:28:54.882Z,19.22
2018-11-27T08:29:54.835Z,19.16
2018-11-27T08:30:54.787Z,19.16
2018-11-27T09:07:44.951Z,18.95
2018-11-27T09:08:44.900Z,18.95
2018-11-27T09:09:44.853Z,18.95
2018-11-27T09:10:44.804Z,19.00
2018-11-27T09:11:44.758Z,18.95
2018-11-27T09:12:44.759Z,18.95
2018-11-27T09:13:44.660Z,18.98
2018-11-27T09:14:44.613Z,19.00
2018-11-27T09:15:44.565Z,18.95
2018-11-27T09:16:44.517Z,18.98
2018-11-27T09:17:44.470Z,19.00
2018-11-27T09:18:44.421Z,18.99
2018-11-27T09:19:44.375Z,18.98
2018-11-27T09:20:44.326Z,18.98
2018-11-27T09:21:44.279Z,18.94
2018-11-27T09:22:44.231Z,18.98
2018-11-27T09:23:44.183Z,18.90
2018-11-27T09:24:44.135Z,18.98
2018-11-27T09:25:44.143Z,18.95
2018-11-27T09:26:44.045Z,18.99
2018-11-27T09:27:44.042Z,18.95
2018-11-27T09:28:43.944Z,18.92
2018-11-27T09:29:43.946Z,18.98
2018-11-27T09:30:43.848Z,18.94
2018-11-27T09:31:43.801Z,18.98
2018-11-27T09:32:43.753Z,18.94
2018-11-27T09:33:43.712Z,18.94
2018-11-27T09:34:43.658Z,18.90
2018-11-27T09:35:43.611Z,18.98
2018-11-27T09:36:43.560Z,18.99
2018-11-27T09:37:43.521Z,18.94
2018-11-27T09:38:43.466Z,18.99
2018-11-27T09:39:43.419Z,18.95
2018-11-27T09:40:43.371Z,18.98
2018-11-27T09:41:43.322Z,18.98
2018-11-27T09:42:43.277Z,18.95
2018-11-27T09:43:43.229Z,18.94
2018-11-27T09:44:43.181Z,18.98
2018-11-27T09:45:43.138Z,18.91
2018-11-27T09:46:43.085Z,18.91
2018-11-27T09:47:43.038Z,18.84
2018-11-27T09:48:42.989Z,18.99
2018-11-27T09:49:42.942Z,18.94
2018-11-27T09:50:42.894Z,18.92
2018-11-27T09:51:42.847Z,18.90
2018-11-27T09:52:42.798Z,18.99
2018-11-27T09:53:42.751Z,18.94
2018-11-27T09:54:42.702Z,18.92
2018-11-27T09:55:42.655Z,18.90
2018-11-27T09:56:42.607Z,18.92
2018-11-27T09:57:42.560Z,18.92
2018-11-27T09:58:42.512Z,18.84
2018-11-27T09:59:42.464Z,18.85
2018-11-27T10:00:42.416Z,18.85
2018-11-27T10:01:42.368Z,18.92
2018-11-27T10:02:42.321Z,18.88
2018-11-27T10:03:42.273Z,18.91
2018-11-27T10:04:42.224Z,18.90
2018-11-27T10:05:42.177Z,18.91
2018-11-27T10:06:42.133Z,18.94
2018-11-27T10:07:42.082Z,18.92
2018-11-27T10:08:42.035Z,18.92
2018-11-27T10:09:41.989Z,19.00
2018-11-27T10:10:41.941Z,18.82
2018-11-27T10:11:42.644Z,18.95
2018-11-27T10:12:41.844Z,19.00
2018-11-27T10:13:41.798Z,18.98
2018-11-27T10:14:41.747Z,18.91
2018-11-27T10:15:41.704Z,18.95
2018-11-27T10:16:41.652Z,19.00
2018-11-27T10:17:41.604Z,18.90
2018-11-27T10:18:41.560Z,19.00
2018-11-27T10:19:41.510Z,18.94
2018-11-27T10:20:41.466Z,18.98
2018-11-27T10:21:41.415Z,18.91
2018-11-27T10:22:41.519Z,18.92
2018-11-27T10:23:41.319Z,18.99
2018-11-27T10:24:41.270Z,18.90
2018-11-27T10:25:41.223Z,18.95
2018-11-27T10:26:41.175Z,18.84
2018-11-27T10:27:41.129Z,18.87
2018-11-27T10:28:41.080Z,18.87
2018-11-27T10:29:41.031Z,18.92
2018-11-27T10:30:40.983Z,18.98
2018-11-27T10:31:40.935Z,18.95
2018-11-27T10:32:40.907Z,18.99
2018-11-27T10:33:40.841Z,18.88
2018-11-27T10:34:40.793Z,18.92
2018-11-27T10:35:40.748Z,18.92
2018-11-27T10:36:40.697Z,18.88
2018-11-27T10:37:40.650Z,18.90
2018-11-27T10:38:40.601Z,18.98
2018-11-27T10:39:40.555Z,18.94
2018-11-27T10:40:40.506Z,18.88
2018-11-27T10:41:40.459Z,18.94
2018-11-27T10:42:40.444Z,19.00
2018-11-27T10:43:40.363Z,18.92
2018-11-27T10:44:40.318Z,18.87
2018-11-27T10:45:40.269Z,18.95
2018-11-27T10:46:40.220Z,18.85
2018-11-27T10:47:40.172Z,18.90
2018-11-27T10:48:40.274Z,18.92
2018-11-27T10:49:40.076Z,18.91
2018-11-27T10:50:40.029Z,18.91
2018-11-27T10:51:40.092Z,18.87
2018-11-27T10:52:39.933Z,18.85
2018-11-27T10:53:39.885Z,18.95
2018-11-27T10:54:39.837Z,18.88
2018-11-27T10:55:39.800Z,18.98
2018-11-27T10:56:39.741Z,18.95
2018-11-27T10:57:39.695Z,18.94
2018-11-27T10:58:39.650Z,18.92
2018-11-27T10:59:39.601Z,19.00
2018-11-27T11:00:39.551Z,18.92
2018-11-27T11:01:39.503Z,18.92
2018-11-27T11:02:39.456Z,18.95
2018-11-27T11:03:39.407Z,18.90
2018-11-27T11:04:39.360Z,18.92
2018-11-27T11:05:39.312Z,18.92
2018-11-27T11:06:39.276Z,18.88
2018-11-27T11:07:39.216Z,18.91
2018-11-27T11:08:39.168Z,18.90
2018-11-27T11:09:39.170Z,18.92
2018-11-27T11:10:39.074Z,18.91
2018-11-27T11:11:39.032Z,18.91
2018-11-27T11:12:39.082Z,18.85
2018-11-27T11:13:38.930Z,18.91
2018-11-27T11:14:38.882Z,18.91
2018-11-27T11:15:38.838Z,18.82
2018-11-27T11:16:38.786Z,18.87
2018-11-27T11:17:38.739Z,18.90
2018-11-27T11:18:38.691Z,18.85
2018-11-27T11:19:38.643Z,18.85
2018-11-27T11:20:38.594Z,18.84
2018-11-27T11:21:38.548Z,18.87
2018-11-27T11:22:38.500Z,18.84
2018-11-27T11:23:38.453Z,18.84
2018-11-27T11:24:38.403Z,18.91
2018-11-27T11:25:38.356Z,18.84
2018-11-27T11:26:38.309Z,18.82
2018-11-27T11:27:38.263Z,18.76
2018-11-27T11:28:38.211Z,18.81
2018-11-27T11:29:38.165Z,18.88
2018-11-27T11:30:38.126Z,18.84
2018-11-27T11:31:38.070Z,18.88
2018-11-27T11:32:38.022Z,18.85
2018-11-27T11:33:38.026Z,18.91
2018-11-27T11:34:37.925Z,18.75
2018-11-27T11:35:37.878Z,18.84
2018-11-27T11:36:37.830Z,18.85
2018-11-27T11:37:37.785Z,18.87
2018-11-27T11:38:37.735Z,18.75
2018-11-27T11:39:37.687Z,18.81
2018-11-27T11:40:37.639Z,18.75
2018-11-27T11:41:37.642Z,18.84
2018-11-27T11:42:37.543Z,18.81
2018-11-27T11:43:37.496Z,18.80
2018-11-27T11:44:37.448Z,18.88
2018-11-27T11:45:37.399Z,18.84
2018-11-27T11:46:37.351Z,18.82
2018-11-27T11:47:37.305Z,18.75
2018-11-27T11:48:37.255Z,18.72
2018-11-27T11:49:37.223Z,18.88
2018-11-27T11:50:37.160Z,18.72
2018-11-27T11:51:37.112Z,18.88
2018-11-27T11:52:37.065Z,18.80
2018-11-27T11:53:37.016Z,18.75
2018-11-27T11:54:36.969Z,18.84
2018-11-27T11:55:36.921Z,18.81
2018-11-27T11:56:36.873Z,18.91
2018-11-27T11:57:36.825Z,18.90
2018-11-27T11:58:36.777Z,18.75
2018-11-27T11:59:36.732Z,18.82
2018-11-27T12:00:36.682Z,18.84
2018-11-27T12:01:36.634Z,18.90
2018-11-27T12:02:36.598Z,18.88
2018-11-27T12:03:36.539Z,18.88
2018-11-27T12:04:36.491Z,18.85
2018-11-27T12:05:36.446Z,18.88
2018-11-27T12:06:36.394Z,18.87
2018-11-27T12:07:36.347Z,18.87
2018-11-27T12:08:36.298Z,18.90
2018-11-27T12:09:36.251Z,18.73
2018-11-27T12:10:36.204Z,18.80
2018-11-27T12:11:36.156Z,18.80
2018-11-27T12:12:36.106Z,18.85
2018-11-27T12:13:36.059Z,18.84
2018-11-27T12:14:36.012Z,18.73
2018-11-27T12:15:35.966Z,18.81
2018-11-27T12:16:35.917Z,18.78
2018-11-27T12:17:35.969Z,18.78
2018-11-27T12:18:35.819Z,18.75
2018-11-27T12:19:35.773Z,18.88
2018-11-27T12:20:35.739Z,18.73
2018-11-27T12:21:35.676Z,18.80
2018-11-27T12:22:35.634Z,18.75
2018-11-27T12:23:35.582Z,18.85
2018-11-27T12:24:35.532Z,18.81
2018-11-27T12:25:35.536Z,18.76
2018-11-27T12:26:35.438Z,18.72
2018-11-27T12:27:35.389Z,18.78
2018-11-27T12:28:35.341Z,18.78
2018-11-27T12:29:35.294Z,18.84
2018-11-27T12:30:35.245Z,18.75
2018-11-27T12:31:35.199Z,18.76
2018-11-27T12:32:35.153Z,18.81
2018-11-27T12:33:35.108Z,18.80
2018-11-27T12:34:35.055Z,18.82
2018-11-27T12:35:35.007Z,18.81
2018-11-27T12:36:34.959Z,18.85
2018-11-27T12:37:34.911Z,18.85
2018-11-27T12:38:34.862Z,18.85
2018-11-27T12:39:34.815Z,18.80
2018-11-27T12:40:34.774Z,18.75
2018-11-27T12:41:34.718Z,18.88
2018-11-27T12:42:34.670Z,18.80
2018-11-27T12:43:34.623Z,18.78
2018-11-27T12:44:34.574Z,18.78
2018-11-27T12:45:34.535Z,18.70
2018-11-27T12:46:34.478Z,18.80
2018-11-27T12:47:34.431Z,18.78
2018-11-27T12:48:34.382Z,18.78
2018-11-27T12:49:34.335Z,18.70
2018-11-27T12:50:34.288Z,18.80
2018-11-27T12:51:34.240Z,18.85
2018-11-27T12:52:34.190Z,18.72
2018-11-27T12:53:34.143Z,18.82
2018-11-27T12:54:34.096Z,18.70
2018-11-27T12:55:34.048Z,18.72
2018-11-27T12:56:34.000Z,18.82
2018-11-27T12:57:33.977Z,18.70
2018-11-27T12:58:33.903Z,18.72
2018-11-27T12:59:33.959Z,18.72
2018-11-27T13:00:33.810Z,18.85
2018-11-27T13:01:33.760Z,18.78
2018-11-27T13:02:33.712Z,18.80
2018-11-27T13:03:33.664Z,18.78
2018-11-27T13:04:33.616Z,18.75
2018-11-27T13:05:33.568Z,18.72
2018-11-27T13:06:33.525Z,18.72
2018-11-27T13:07:33.474Z,18.78
2018-11-27T13:08:33.424Z,18.82
2018-11-27T13:09:33.378Z,18.78
2018-11-27T13:10:33.330Z,18.81
2018-11-27T13:11:33.281Z,18.75
2018-11-27T13:12:33.234Z,18.81
2018-11-27T13:13:33.185Z,18.75
2018-11-27T13:14:33.137Z,18.82
2018-11-27T13:15:33.091Z,18.88
2018-11-27T13:16:33.041Z,18.81
2018-11-27T13:17:32.995Z,18.88
2018-11-27T13:18:32.948Z,18.84
2018-11-27T13:19:32.949Z,18.82
2018-11-27T13:20:32.850Z,18.78
2018-11-27T13:21:32.802Z,18.88
2018-11-27T13:22:32.754Z,18.82
2018-11-27T13:23:32.708Z,18.88
2018-11-27T13:24:32.659Z,18.76
2018-11-27T13:25:32.611Z,18.82
2018-11-27T13:26:32.566Z,18.75
2018-11-27T13:27:32.517Z,18.88